sensor_id;sensor_type;location;lat;lon;timestamp;pressure;altitude;pressure_sealevel;temperature;humidity
84865;BME280;75122;41.650;25.368;2024-01-11T00:00:10;99717.03;;;-4.41;68.71
84865;BME280;75122;41.650;25.368;2024-01-11T00:02:35;99706.56;;;-4.37;67.16
84865;BME280;75122;41.650;25.368;2024-01-11T00:05:00;99715.91;;;-4.26;67.42
84865;BME280;75122;41.650;25.368;2024-01-11T00:07:27;99710.25;;;-4.30;67.88
84865;BME280;75122;41.650;25.368;2024-01-11T00:09:52;99708.56;;;-4.18;66.88
84865;BME280;75122;41.650;25.368;2024-01-11T00:12:18;99701.88;;;-4.08;66.28
84865;BME280;75122;41.650;25.368;2024-01-11T00:14:43;99700.84;;;-3.94;66.03
84865;BME280;75122;41.650;25.368;2024-01-11T00:17:08;99694.28;;;-3.86;66.85
84865;BME280;75122;41.650;25.368;2024-01-11T00:19:34;99690.25;;;-3.77;65.29
84865;BME280;75122;41.650;25.368;2024-01-11T00:21:59;99694.06;;;-3.83;65.78
84865;BME280;75122;41.650;25.368;2024-01-11T00:24:24;99690.59;;;-3.82;65.61
84865;BME280;75122;41.650;25.368;2024-01-11T00:26:50;99691.88;;;-3.87;67.49
84865;BME280;75122;41.650;25.368;2024-01-11T00:29:15;99684.50;;;-3.90;67.22
84865;BME280;75122;41.650;25.368;2024-01-11T00:31:41;99680.47;;;-3.93;66.44
84865;BME280;75122;41.650;25.368;2024-01-11T00:34:06;99672.28;;;-3.96;65.95
84865;BME280;75122;41.650;25.368;2024-01-11T00:36:31;99668.94;;;-4.08;66.97
84865;BME280;75122;41.650;25.368;2024-01-11T00:38:58;99681.84;;;-4.11;66.70
84865;BME280;75122;41.650;25.368;2024-01-11T00:41:24;99673.28;;;-4.32;67.96
84865;BME280;75122;41.650;25.368;2024-01-11T00:43:49;99678.75;;;-4.60;68.67
84865;BME280;75122;41.650;25.368;2024-01-11T00:46:15;99679.00;;;-4.52;67.67
84865;BME280;75122;41.650;25.368;2024-01-11T00:48:40;99677.53;;;-4.44;67.00
84865;BME280;75122;41.650;25.368;2024-01-11T00:51:05;99669.03;;;-4.32;68.36
84865;BME280;75122;41.650;25.368;2024-01-11T00:53:31;99653.50;;;-4.27;67.88
84865;BME280;75122;41.650;25.368;2024-01-11T00:55:57;99654.53;;;-4.18;66.42
84865;BME280;75122;41.650;25.368;2024-01-11T00:58:23;99647.75;;;-4.18;65.82
84865;BME280;75122;41.650;25.368;2024-01-11T01:00:48;99642.19;;;-4.23;67.33
84865;BME280;75122;41.650;25.368;2024-01-11T01:03:15;99636.47;;;-4.25;65.92
84865;BME280;75122;41.650;25.368;2024-01-11T01:05:41;99635.66;;;-4.26;66.20
84865;BME280;75122;41.650;25.368;2024-01-11T01:08:07;99637.47;;;-4.28;65.95
84865;BME280;75122;41.650;25.368;2024-01-11T01:10:32;99630.13;;;-4.31;66.59
84865;BME280;75122;41.650;25.368;2024-01-11T01:12:58;99628.16;;;-4.38;66.86
84865;BME280;75122;41.650;25.368;2024-01-11T01:15:23;99636.56;;;-4.38;66.48
84865;BME280;75122;41.650;25.368;2024-01-11T01:17:49;99622.63;;;-4.32;65.91
84865;BME280;75122;41.650;25.368;2024-01-11T01:20:14;99627.91;;;-4.57;66.79
84865;BME280;75122;41.650;25.368;2024-01-11T01:22:40;99633.53;;;-4.54;67.74
84865;BME280;75122;41.650;25.368;2024-01-11T01:25:05;99621.34;;;-4.49;66.38
84865;BME280;75122;41.650;25.368;2024-01-11T01:27:30;99617.69;;;-4.45;66.43
84865;BME280;75122;41.650;25.368;2024-01-11T01:29:56;99609.38;;;-4.36;66.40
84865;BME280;75122;41.650;25.368;2024-01-11T01:32:21;99613.53;;;-4.35;66.78
84865;BME280;75122;41.650;25.368;2024-01-11T01:34:46;99606.03;;;-4.36;65.36
84865;BME280;75122;41.650;25.368;2024-01-11T01:37:12;99597.50;;;-4.35;65.28
84865;BME280;75122;41.650;25.368;2024-01-11T01:39:37;99600.53;;;-4.30;65.40
84865;BME280;75122;41.650;25.368;2024-01-11T01:42:04;99593.84;;;-4.31;66.61
84865;BME280;75122;41.650;25.368;2024-01-11T01:44:29;99586.91;;;-4.40;66.01
84865;BME280;75122;41.650;25.368;2024-01-11T01:46:55;99587.16;;;-4.32;66.24
84865;BME280;75122;41.650;25.368;2024-01-11T01:49:21;99580.16;;;-4.29;66.06
84865;BME280;75122;41.650;25.368;2024-01-11T01:51:47;99586.00;;;-4.28;65.21
84865;BME280;75122;41.650;25.368;2024-01-11T01:54:14;99585.91;;;-4.38;65.97
84865;BME280;75122;41.650;25.368;2024-01-11T01:56:40;99583.59;;;-4.41;65.79
84865;BME280;75122;41.650;25.368;2024-01-11T01:59:06;99582.06;;;-4.32;66.40
84865;BME280;75122;41.650;25.368;2024-01-11T02:01:32;99573.69;;;-4.33;65.81
84865;BME280;75122;41.650;25.368;2024-01-11T02:03:58;99562.88;;;-4.35;66.34
84865;BME280;75122;41.650;25.368;2024-01-11T02:06:25;99560.91;;;-4.31;65.20
84865;BME280;75122;41.650;25.368;2024-01-11T02:08:55;99559.28;;;-4.32;65.53
84865;BME280;75122;41.650;25.368;2024-01-11T02:11:22;99560.22;;;-4.33;66.75
84865;BME280;75122;41.650;25.368;2024-01-11T02:13:49;99565.50;;;-4.36;66.64
84865;BME280;75122;41.650;25.368;2024-01-11T02:16:15;99564.72;;;-4.37;66.53
84865;BME280;75122;41.650;25.368;2024-01-11T02:18:40;99562.75;;;-4.33;66.37
84865;BME280;75122;41.650;25.368;2024-01-11T02:21:08;99555.84;;;-4.31;65.55
84865;BME280;75122;41.650;25.368;2024-01-11T02:23:36;99554.56;;;-4.26;65.75
84865;BME280;75122;41.650;25.368;2024-01-11T02:26:06;99538.22;;;-4.21;66.93
84865;BME280;75122;41.650;25.368;2024-01-11T02:28:32;99550.19;;;-4.12;65.21
84865;BME280;75122;41.650;25.368;2024-01-11T02:30:57;99541.31;;;-4.18;66.26
84865;BME280;75122;41.650;25.368;2024-01-11T02:33:22;99546.50;;;-4.19;65.17
84865;BME280;75122;41.650;25.368;2024-01-11T02:35:48;99545.84;;;-4.33;65.75
84865;BME280;75122;41.650;25.368;2024-01-11T02:38:14;99546.06;;;-4.47;65.97
84865;BME280;75122;41.650;25.368;2024-01-11T02:40:40;99536.50;;;-4.54;65.10
84865;BME280;75122;41.650;25.368;2024-01-11T02:43:14;99541.06;;;-4.93;66.75
84865;BME280;75122;41.650;25.368;2024-01-11T02:45:39;99541.84;;;-5.14;67.27
84865;BME280;75122;41.650;25.368;2024-01-11T02:48:05;99537.38;;;-5.00;67.01
84865;BME280;75122;41.650;25.368;2024-01-11T02:50:30;99535.31;;;-4.95;66.48
84865;BME280;75122;41.650;25.368;2024-01-11T02:52:56;99538.66;;;-4.94;66.35
84865;BME280;75122;41.650;25.368;2024-01-11T02:55:21;99537.03;;;-4.84;65.69
84865;BME280;75122;41.650;25.368;2024-01-11T02:57:46;99533.09;;;-5.10;66.29
84865;BME280;75122;41.650;25.368;2024-01-11T03:00:12;99539.19;;;-5.13;66.65
84865;BME280;75122;41.650;25.368;2024-01-11T03:02:38;99534.81;;;-5.22;67.59
84865;BME280;75122;41.650;25.368;2024-01-11T03:05:03;99538.72;;;-5.18;66.70
84865;BME280;75122;41.650;25.368;2024-01-11T03:07:29;99537.91;;;-5.19;67.14
84865;BME280;75122;41.650;25.368;2024-01-11T03:09:55;99534.41;;;-5.29;67.88
84865;BME280;75122;41.650;25.368;2024-01-11T03:12:21;99538.81;;;-5.31;67.01
84865;BME280;75122;41.650;25.368;2024-01-11T03:14:47;99538.31;;;-5.36;67.35
84865;BME280;75122;41.650;25.368;2024-01-11T03:17:13;99529.69;;;-5.33;68.77
84865;BME280;75122;41.650;25.368;2024-01-11T03:19:41;99529.94;;;-5.25;68.64
84865;BME280;75122;41.650;25.368;2024-01-11T03:22:07;99527.47;;;-5.14;67.50
84865;BME280;75122;41.650;25.368;2024-01-11T03:24:32;99530.34;;;-5.07;67.07
84865;BME280;75122;41.650;25.368;2024-01-11T03:26:58;99530.13;;;-5.04;67.25
84865;BME280;75122;41.650;25.368;2024-01-11T03:29:23;99527.47;;;-5.03;67.79
84865;BME280;75122;41.650;25.368;2024-01-11T03:31:48;99527.38;;;-5.01;67.01
84865;BME280;75122;41.650;25.368;2024-01-11T03:34:14;99530.34;;;-4.96;66.52
84865;BME280;75122;41.650;25.368;2024-01-11T03:36:39;99534.28;;;-4.92;67.28
84865;BME280;75122;41.650;25.368;2024-01-11T03:39:05;99513.44;;;-4.96;67.99
84865;BME280;75122;41.650;25.368;2024-01-11T03:41:31;99519.31;;;-5.06;67.29
84865;BME280;75122;41.650;25.368;2024-01-11T03:43:56;99513.91;;;-5.02;65.65
84865;BME280;75122;41.650;25.368;2024-01-11T03:46:21;99503.91;;;-5.03;66.98
84865;BME280;75122;41.650;25.368;2024-01-11T03:48:47;99507.34;;;-5.04;65.84
84865;BME280;75122;41.650;25.368;2024-01-11T03:51:13;99504.81;;;-5.04;67.09
84865;BME280;75122;41.650;25.368;2024-01-11T03:53:38;99502.63;;;-5.09;67.19
84865;BME280;75122;41.650;25.368;2024-01-11T03:56:04;99501.34;;;-5.14;67.85
84865;BME280;75122;41.650;25.368;2024-01-11T03:58:29;99503.75;;;-5.24;67.58
84865;BME280;75122;41.650;25.368;2024-01-11T04:00:55;99510.16;;;-5.42;68.22
84865;BME280;75122;41.650;25.368;2024-01-11T04:03:20;99516.44;;;-5.48;68.45
84865;BME280;75122;41.650;25.368;2024-01-11T04:05:46;99515.28;;;-5.55;67.73
84865;BME280;75122;41.650;25.368;2024-01-11T04:08:11;99520.34;;;-5.44;67.23
84865;BME280;75122;41.650;25.368;2024-01-11T04:10:36;99521.19;;;-5.32;68.54
84865;BME280;75122;41.650;25.368;2024-01-11T04:13:02;99520.53;;;-5.23;68.06
84865;BME280;75122;41.650;25.368;2024-01-11T04:15:27;99516.88;;;-5.19;66.69
84865;BME280;75122;41.650;25.368;2024-01-11T04:17:53;99508.13;;;-5.15;66.82
84865;BME280;75122;41.650;25.368;2024-01-11T04:20:18;99511.47;;;-5.14;66.01
84865;BME280;75122;41.650;25.368;2024-01-11T04:22:44;99512.88;;;-5.10;66.32
84865;BME280;75122;41.650;25.368;2024-01-11T04:25:09;99512.06;;;-5.11;67.12
84865;BME280;75122;41.650;25.368;2024-01-11T04:27:35;99513.25;;;-5.39;66.03
84865;BME280;75122;41.650;25.368;2024-01-11T04:30:00;99512.47;;;-5.28;66.54
84865;BME280;75122;41.650;25.368;2024-01-11T04:32:26;99521.22;;;-5.21;66.63
84865;BME280;75122;41.650;25.368;2024-01-11T04:34:51;99515.97;;;-5.18;65.57
84865;BME280;75122;41.650;25.368;2024-01-11T04:37:17;99513.50;;;-5.31;66.64
84865;BME280;75122;41.650;25.368;2024-01-11T04:39:43;99515.19;;;-5.42;68.04
84865;BME280;75122;41.650;25.368;2024-01-11T04:42:08;99514.19;;;-5.63;67.23
84865;BME280;75122;41.650;25.368;2024-01-11T04:44:33;99513.97;;;-5.60;67.30
84865;BME280;75122;41.650;25.368;2024-01-11T04:46:59;99519.06;;;-5.49;68.18
84865;BME280;75122;41.650;25.368;2024-01-11T04:49:25;99500.47;;;-5.48;67.77
84865;BME280;75122;41.650;25.368;2024-01-11T04:51:51;99506.16;;;-5.57;67.08
84865;BME280;75122;41.650;25.368;2024-01-11T04:54:16;99508.09;;;-5.61;67.57
84865;BME280;75122;41.650;25.368;2024-01-11T04:56:41;99499.34;;;-5.68;68.15
84865;BME280;75122;41.650;25.368;2024-01-11T04:59:07;99509.63;;;-5.58;68.11
84865;BME280;75122;41.650;25.368;2024-01-11T05:01:32;99507.78;;;-5.56;67.72
84865;BME280;75122;41.650;25.368;2024-01-11T05:03:57;99510.47;;;-5.47;66.99
84865;BME280;75122;41.650;25.368;2024-01-11T05:06:23;99504.16;;;-5.41;67.05
84865;BME280;75122;41.650;25.368;2024-01-11T05:08:50;99496.94;;;-5.35;67.01
84865;BME280;75122;41.650;25.368;2024-01-11T05:11:21;99495.66;;;-5.40;66.82
84865;BME280;75122;41.650;25.368;2024-01-11T05:13:48;99502.66;;;-5.44;66.27
84865;BME280;75122;41.650;25.368;2024-01-11T05:16:24;99501.75;;;-5.43;67.58
84865;BME280;75122;41.650;25.368;2024-01-11T05:18:55;99499.47;;;-5.35;65.72
84865;BME280;75122;41.650;25.368;2024-01-11T05:21:21;99496.97;;;-5.24;66.18
84865;BME280;75122;41.650;25.368;2024-01-11T05:23:47;99494.53;;;-5.25;66.08
84865;BME280;75122;41.650;25.368;2024-01-11T05:26:14;99483.97;;;-5.30;66.30
84865;BME280;75122;41.650;25.368;2024-01-11T05:28:40;99484.91;;;-5.20;67.02
84865;BME280;75122;41.650;25.368;2024-01-11T05:31:12;99478.78;;;-5.29;65.67
84865;BME280;75122;41.650;25.368;2024-01-11T05:33:38;99481.69;;;-5.22;66.58
84865;BME280;75122;41.650;25.368;2024-01-11T05:36:04;99474.53;;;-5.17;65.51
84865;BME280;75122;41.650;25.368;2024-01-11T05:38:29;99478.94;;;-5.19;66.04
84865;BME280;75122;41.650;25.368;2024-01-11T05:40:55;99475.00;;;-5.23;66.96
84865;BME280;75122;41.650;25.368;2024-01-11T05:43:22;99469.63;;;-5.19;66.32
84865;BME280;75122;41.650;25.368;2024-01-11T05:45:47;99471.66;;;-5.24;66.40
84865;BME280;75122;41.650;25.368;2024-01-11T05:48:12;99467.84;;;-5.40;66.95
84865;BME280;75122;41.650;25.368;2024-01-11T05:50:38;99480.94;;;-5.46;67.39
84865;BME280;75122;41.650;25.368;2024-01-11T05:53:03;99479.22;;;-5.70;67.20
84865;BME280;75122;41.650;25.368;2024-01-11T05:55:29;99480.53;;;-5.64;67.12
84865;BME280;75122;41.650;25.368;2024-01-11T05:57:54;99481.38;;;-5.52;66.59
84865;BME280;75122;41.650;25.368;2024-01-11T06:00:20;99481.38;;;-5.52;66.69
84865;BME280;75122;41.650;25.368;2024-01-11T06:02:45;99482.75;;;-5.48;67.24
84865;BME280;75122;41.650;25.368;2024-01-11T06:05:11;99489.50;;;-5.60;67.48
84865;BME280;75122;41.650;25.368;2024-01-11T06:07:38;99482.31;;;-5.77;67.61
84865;BME280;75122;41.650;25.368;2024-01-11T06:10:04;99484.00;;;-5.89;68.58
84865;BME280;75122;41.650;25.368;2024-01-11T06:12:31;99474.84;;;-5.79;69.29
84865;BME280;75122;41.650;25.368;2024-01-11T06:14:56;99482.63;;;-5.58;68.64
84865;BME280;75122;41.650;25.368;2024-01-11T06:17:22;99476.69;;;-5.46;69.44
84865;BME280;75122;41.650;25.368;2024-01-11T06:19:48;99473.94;;;-5.32;67.94
84865;BME280;75122;41.650;25.368;2024-01-11T06:22:14;99479.16;;;-5.22;68.35
84865;BME280;75122;41.650;25.368;2024-01-11T06:24:39;99471.56;;;-5.22;66.79
84865;BME280;75122;41.650;25.368;2024-01-11T06:27:04;99474.69;;;-5.53;68.10
84865;BME280;75122;41.650;25.368;2024-01-11T06:29:30;99480.53;;;-5.64;69.26
84865;BME280;75122;41.650;25.368;2024-01-11T06:31:55;99472.91;;;-5.40;70.49
84865;BME280;75122;41.650;25.368;2024-01-11T06:34:20;99471.22;;;-5.18;69.25
84865;BME280;75122;41.650;25.368;2024-01-11T06:36:46;99467.91;;;-4.96;69.17
84865;BME280;75122;41.650;25.368;2024-01-11T06:39:11;99461.78;;;-5.15;69.29
84865;BME280;75122;41.650;25.368;2024-01-11T06:41:37;99461.94;;;-4.95;69.89
84865;BME280;75122;41.650;25.368;2024-01-11T06:44:03;99462.13;;;-4.64;70.06
84865;BME280;75122;41.650;25.368;2024-01-11T06:46:29;99463.81;;;-4.32;69.84
84865;BME280;75122;41.650;25.368;2024-01-11T06:48:55;99455.28;;;-4.08;69.35
84865;BME280;75122;41.650;25.368;2024-01-11T06:51:21;99456.50;;;-4.03;68.77
84865;BME280;75122;41.650;25.368;2024-01-11T06:53:47;99459.44;;;-4.18;68.74
84865;BME280;75122;41.650;25.368;2024-01-11T06:56:16;99458.00;;;-4.00;68.97
84865;BME280;75122;41.650;25.368;2024-01-11T06:58:43;99452.84;;;-3.78;67.72
84865;BME280;75122;41.650;25.368;2024-01-11T07:01:09;99451.97;;;-3.67;67.11
84865;BME280;75122;41.650;25.368;2024-01-11T07:03:34;99453.13;;;-3.40;66.72
84865;BME280;75122;41.650;25.368;2024-01-11T07:05:59;99449.44;;;-3.47;66.05
84865;BME280;75122;41.650;25.368;2024-01-11T07:08:25;99440.63;;;-3.52;66.24
84865;BME280;75122;41.650;25.368;2024-01-11T07:10:50;99444.19;;;-3.55;68.87
84865;BME280;75122;41.650;25.368;2024-01-11T07:13:16;99438.38;;;-3.25;66.96
84865;BME280;75122;41.650;25.368;2024-01-11T07:15:42;99443.72;;;-3.28;66.48
84865;BME280;75122;41.650;25.368;2024-01-11T07:18:07;99438.25;;;-3.23;66.73
84865;BME280;75122;41.650;25.368;2024-01-11T07:20:33;99437.13;;;-3.51;66.84
84865;BME280;75122;41.650;25.368;2024-01-11T07:22:58;99442.34;;;-3.11;66.23
84865;BME280;75122;41.650;25.368;2024-01-11T07:25:24;99446.59;;;-2.82;65.34
84865;BME280;75122;41.650;25.368;2024-01-11T07:27:49;99440.47;;;-2.69;65.31
84865;BME280;75122;41.650;25.368;2024-01-11T07:30:15;99440.28;;;-2.47;64.70
84865;BME280;75122;41.650;25.368;2024-01-11T07:32:40;99445.16;;;-2.15;66.19
84865;BME280;75122;41.650;25.368;2024-01-11T07:35:06;99443.84;;;-1.91;65.17
84865;BME280;75122;41.650;25.368;2024-01-11T07:37:32;99439.81;;;-1.83;63.44
84865;BME280;75122;41.650;25.368;2024-01-11T07:39:57;99444.75;;;-1.53;63.47
84865;BME280;75122;41.650;25.368;2024-01-11T07:42:22;99429.19;;;-1.31;62.91
84865;BME280;75122;41.650;25.368;2024-01-11T07:44:48;99429.31;;;-0.96;62.65
84865;BME280;75122;41.650;25.368;2024-01-11T07:47:13;99421.19;;;-0.72;63.74
84865;BME280;75122;41.650;25.368;2024-01-11T07:49:39;99430.06;;;-0.49;59.43
84865;BME280;75122;41.650;25.368;2024-01-11T07:52:04;99421.09;;;-0.80;60.72
84865;BME280;75122;41.650;25.368;2024-01-11T07:54:30;99425.75;;;-0.75;61.16
84865;BME280;75122;41.650;25.368;2024-01-11T07:56:56;99420.16;;;-0.34;61.64
84865;BME280;75122;41.650;25.368;2024-01-11T07:59:22;99419.22;;;-0.15;59.19
84865;BME280;75122;41.650;25.368;2024-01-11T08:01:47;99423.44;;;0.29;60.91
84865;BME280;75122;41.650;25.368;2024-01-11T08:04:14;99416.63;;;0.12;56.53
84865;BME280;75122;41.650;25.368;2024-01-11T08:06:39;99416.41;;;0.49;56.90
84865;BME280;75122;41.650;25.368;2024-01-11T08:09:05;99403.31;;;0.44;55.59
84865;BME280;75122;41.650;25.368;2024-01-11T08:11:30;99402.19;;;0.46;56.43
84865;BME280;75122;41.650;25.368;2024-01-11T08:13:56;99400.69;;;0.62;56.33
84865;BME280;75122;41.650;25.368;2024-01-11T08:16:22;99393.03;;;0.87;55.42
84865;BME280;75122;41.650;25.368;2024-01-11T08:18:47;99390.94;;;0.14;55.64
84865;BME280;75122;41.650;25.368;2024-01-11T08:21:14;99398.63;;;0.65;57.13
84865;BME280;75122;41.650;25.368;2024-01-11T08:23:40;99391.69;;;0.75;54.95
84865;BME280;75122;41.650;25.368;2024-01-11T08:26:16;99383.34;;;0.39;57.11
84865;BME280;75122;41.650;25.368;2024-01-11T08:28:44;99383.97;;;0.93;56.09
84865;BME280;75122;41.650;25.368;2024-01-11T08:31:09;99380.22;;;0.54;55.71
84865;BME280;75122;41.650;25.368;2024-01-11T08:33:35;99383.22;;;0.23;55.81
84865;BME280;75122;41.650;25.368;2024-01-11T08:36:04;99385.81;;;-0.12;56.88
84865;BME280;75122;41.650;25.368;2024-01-11T08:38:30;99381.34;;;0.08;55.08
84865;BME280;75122;41.650;25.368;2024-01-11T08:40:55;99379.00;;;0.14;57.38
84865;BME280;75122;41.650;25.368;2024-01-11T08:43:21;99379.09;;;0.48;58.25
84865;BME280;75122;41.650;25.368;2024-01-11T08:45:46;99371.28;;;0.83;57.47
84865;BME280;75122;41.650;25.368;2024-01-11T08:48:13;99375.72;;;1.15;55.38
84865;BME280;75122;41.650;25.368;2024-01-11T08:50:39;99362.22;;;0.89;54.48
84865;BME280;75122;41.650;25.368;2024-01-11T08:53:04;99356.63;;;0.34;55.73
84865;BME280;75122;41.650;25.368;2024-01-11T08:55:29;99355.72;;;1.03;57.56
84865;BME280;75122;41.650;25.368;2024-01-11T08:57:55;99347.56;;;1.49;56.58
84865;BME280;75122;41.650;25.368;2024-01-11T09:00:20;99343.28;;;1.66;56.58
84865;BME280;75122;41.650;25.368;2024-01-11T09:02:46;99341.66;;;2.13;55.73
84865;BME280;75122;41.650;25.368;2024-01-11T09:05:13;99350.31;;;1.14;54.29
84865;BME280;75122;41.650;25.368;2024-01-11T09:07:39;99340.28;;;1.12;55.94
84865;BME280;75122;41.650;25.368;2024-01-11T09:10:05;99327.28;;;1.88;56.07
84865;BME280;75122;41.650;25.368;2024-01-11T09:12:31;99321.75;;;2.48;54.88
84865;BME280;75122;41.650;25.368;2024-01-11T09:14:56;99314.69;;;2.66;54.28
84865;BME280;75122;41.650;25.368;2024-01-11T09:17:22;99310.06;;;2.92;53.53
84865;BME280;75122;41.650;25.368;2024-01-11T09:19:47;99308.47;;;2.99;53.62
84865;BME280;75122;41.650;25.368;2024-01-11T09:22:13;99306.53;;;3.24;52.28
84865;BME280;75122;41.650;25.368;2024-01-11T09:24:38;99291.97;;;3.70;53.22
84865;BME280;75122;41.650;25.368;2024-01-11T09:27:04;99285.56;;;3.20;51.20
84865;BME280;75122;41.650;25.368;2024-01-11T09:29:29;99275.91;;;3.91;50.45
84865;BME280;75122;41.650;25.368;2024-01-11T09:31:55;99273.59;;;3.81;49.07
84865;BME280;75122;41.650;25.368;2024-01-11T09:34:20;99269.75;;;3.40;47.95
84865;BME280;75122;41.650;25.368;2024-01-11T09:36:46;99259.88;;;3.89;53.32
84865;BME280;75122;41.650;25.368;2024-01-11T09:39:12;99266.00;;;3.88;49.16
84865;BME280;75122;41.650;25.368;2024-01-11T09:41:42;99261.31;;;4.06;49.36
84865;BME280;75122;41.650;25.368;2024-01-11T09:44:13;99257.72;;;4.00;50.15
84865;BME280;75122;41.650;25.368;2024-01-11T09:46:39;99244.69;;;4.46;49.77
84865;BME280;75122;41.650;25.368;2024-01-11T09:49:04;99246.34;;;3.80;47.79
84865;BME280;75122;41.650;25.368;2024-01-11T09:51:33;99244.00;;;4.52;45.54
84865;BME280;75122;41.650;25.368;2024-01-11T09:53:59;99242.81;;;4.54;47.76
84865;BME280;75122;41.650;25.368;2024-01-11T09:56:25;99239.69;;;5.31;46.91
84865;BME280;75122;41.650;25.368;2024-01-11T09:58:53;99221.88;;;5.29;46.59
84865;BME280;75122;41.650;25.368;2024-01-11T10:01:18;99225.09;;;5.59;44.74
84865;BME280;75122;41.650;25.368;2024-01-11T10:03:44;99223.91;;;6.11;43.84
84865;BME280;75122;41.650;25.368;2024-01-11T10:06:11;99222.22;;;5.47;43.30
84865;BME280;75122;41.650;25.368;2024-01-11T10:08:37;99210.03;;;6.12;45.93
84865;BME280;75122;41.650;25.368;2024-01-11T10:11:03;99212.22;;;6.49;42.33
84865;BME280;75122;41.650;25.368;2024-01-11T10:13:30;99210.19;;;6.38;40.60
84865;BME280;75122;41.650;25.368;2024-01-11T10:16:12;99195.28;;;6.87;42.86
84865;BME280;75122;41.650;25.368;2024-01-11T10:18:41;99193.97;;;7.31;42.26
84865;BME280;75122;41.650;25.368;2024-01-11T10:21:07;99184.41;;;7.77;41.11
84865;BME280;75122;41.650;25.368;2024-01-11T10:23:35;99183.28;;;6.53;42.53
84865;BME280;75122;41.650;25.368;2024-01-11T10:26:02;99175.06;;;6.97;41.08
84865;BME280;75122;41.650;25.368;2024-01-11T10:28:28;99170.53;;;7.19;42.80
84865;BME280;75122;41.650;25.368;2024-01-11T10:30:54;99168.56;;;7.47;41.10
84865;BME280;75122;41.650;25.368;2024-01-11T10:33:21;99162.56;;;7.40;41.22
84865;BME280;75122;41.650;25.368;2024-01-11T10:35:47;99159.72;;;7.94;38.48
84865;BME280;75122;41.650;25.368;2024-01-11T10:38:16;99156.00;;;6.79;40.03
84865;BME280;75122;41.650;25.368;2024-01-11T10:40:43;99152.28;;;6.40;40.49
84865;BME280;75122;41.650;25.368;2024-01-11T10:43:10;99140.13;;;7.08;41.64
84865;BME280;75122;41.650;25.368;2024-01-11T10:45:41;99142.72;;;7.08;38.47
84865;BME280;75122;41.650;25.368;2024-01-11T10:48:07;99142.03;;;7.98;40.93
84865;BME280;75122;41.650;25.368;2024-01-11T10:50:42;99137.75;;;8.36;37.90
84865;BME280;75122;41.650;25.368;2024-01-11T10:53:36;99139.59;;;8.67;38.32
84865;BME280;75122;41.650;25.368;2024-01-11T10:56:05;99128.25;;;8.68;37.64
84865;BME280;75122;41.650;25.368;2024-01-11T10:58:33;99125.97;;;7.83;38.35
84865;BME280;75122;41.650;25.368;2024-01-11T11:01:01;99120.69;;;7.12;37.02
84865;BME280;75122;41.650;25.368;2024-01-11T11:03:30;99116.06;;;7.80;40.34
84865;BME280;75122;41.650;25.368;2024-01-11T11:06:00;99110.88;;;8.75;37.55
84865;BME280;75122;41.650;25.368;2024-01-11T11:08:26;99107.56;;;8.17;38.35
84865;BME280;75122;41.650;25.368;2024-01-11T11:10:56;99096.84;;;9.14;35.97
84865;BME280;75122;41.650;25.368;2024-01-11T11:13:22;99085.84;;;9.19;35.23
84865;BME280;75122;41.650;25.368;2024-01-11T11:15:48;99089.13;;;8.52;33.14
84865;BME280;75122;41.650;25.368;2024-01-11T11:18:14;99073.19;;;8.55;31.66
84865;BME280;75122;41.650;25.368;2024-01-11T11:20:41;99077.38;;;8.56;31.27
84865;BME280;75122;41.650;25.368;2024-01-11T11:23:10;99069.41;;;9.31;35.38
84865;BME280;75122;41.650;25.368;2024-01-11T11:25:36;99065.75;;;9.39;31.66
84865;BME280;75122;41.650;25.368;2024-01-11T11:28:03;99062.41;;;8.64;29.81
84865;BME280;75122;41.650;25.368;2024-01-11T11:30:33;99058.28;;;9.49;31.30
84865;BME280;75122;41.650;25.368;2024-01-11T11:33:16;99051.53;;;9.84;28.24
84865;BME280;75122;41.650;25.368;2024-01-11T11:35:42;99046.25;;;9.55;27.70
84865;BME280;75122;41.650;25.368;2024-01-11T11:38:08;99036.06;;;8.99;29.94
84865;BME280;75122;41.650;25.368;2024-01-11T11:40:42;99036.94;;;9.54;30.11
84865;BME280;75122;41.650;25.368;2024-01-11T11:43:10;99034.84;;;9.44;30.96
84865;BME280;75122;41.650;25.368;2024-01-11T11:45:37;99035.13;;;9.91;30.94
84865;BME280;75122;41.650;25.368;2024-01-11T11:53:33;99011.09;;;10.43;27.28
84865;BME280;75122;41.650;25.368;2024-01-11T11:56:00;99005.22;;;10.48;29.16
84865;BME280;75122;41.650;25.368;2024-01-11T11:58:27;98998.25;;;9.89;29.85
84865;BME280;75122;41.650;25.368;2024-01-11T12:00:53;98992.97;;;10.66;28.98
84865;BME280;75122;41.650;25.368;2024-01-11T12:03:19;98985.63;;;11.21;29.13
84865;BME280;75122;41.650;25.368;2024-01-11T12:05:45;98979.88;;;10.61;28.08
84865;BME280;75122;41.650;25.368;2024-01-11T12:08:10;98984.84;;;11.09;27.03
84865;BME280;75122;41.650;25.368;2024-01-11T12:10:36;98973.91;;;11.07;25.73
84865;BME280;75122;41.650;25.368;2024-01-11T12:13:05;98977.47;;;11.81;27.12
84865;BME280;75122;41.650;25.368;2024-01-11T12:15:31;98961.28;;;12.36;26.24
84865;BME280;75122;41.650;25.368;2024-01-11T12:17:58;98952.59;;;12.80;26.74
84865;BME280;75122;41.650;25.368;2024-01-11T12:20:24;98955.59;;;12.72;24.66
84865;BME280;75122;41.650;25.368;2024-01-11T12:22:49;98950.28;;;12.84;24.14
84865;BME280;75122;41.650;25.368;2024-01-11T12:25:14;98944.06;;;12.85;25.80
84865;BME280;75122;41.650;25.368;2024-01-11T12:27:40;98941.31;;;12.58;24.86
84865;BME280;75122;41.650;25.368;2024-01-11T12:30:06;98940.44;;;13.07;24.70
84865;BME280;75122;41.650;25.368;2024-01-11T12:32:34;98933.34;;;12.81;23.46
84865;BME280;75122;41.650;25.368;2024-01-11T12:35:00;98937.78;;;13.02;25.12
84865;BME280;75122;41.650;25.368;2024-01-11T12:37:26;98935.53;;;13.28;23.86
84865;BME280;75122;41.650;25.368;2024-01-11T12:39:58;98925.09;;;13.28;20.98
84865;BME280;75122;41.650;25.368;2024-01-11T12:42:25;98920.19;;;12.38;20.12
84865;BME280;75122;41.650;25.368;2024-01-11T12:44:51;98916.41;;;12.12;21.28
84865;BME280;75122;41.650;25.368;2024-01-11T12:47:17;98909.13;;;11.41;21.95
84865;BME280;75122;41.650;25.368;2024-01-11T12:49:46;98908.47;;;11.62;23.71
84865;BME280;75122;41.650;25.368;2024-01-11T12:52:19;98896.63;;;12.11;23.95